Time;durP1;ratioP1;P1;durP2;ratioP2;P2;SDS_P1;SDS_P2;PMS_P1;PMS_P2;Temp;Humidity;BMP_temperature;BMP_pressure;BME280_temperature;BME280_humidity;BME280_pressure;Samples;Min_cycle;Max_cycle;Signal;HPM_P1;HPM_P2
2021/11/20 00:00:27;;;;;;;;;;;;;;;-144.99;100.00;52566.31;5037633;28;20005;-64
2021/11/20 00:02:54;;;;;;;;;;;;;;;-144.99;100.00;52564.28;5030089;28;20516;-64
2021/11/20 00:05:24;;;;;;;;;;;;;;;-144.99;100.00;52533.69;5030229;28;20043;-63
2021/11/20 00:07:51;;;;;;;;;;;;;;;-144.99;100.00;52594.84;5030417;28;20040;-63
2021/11/20 00:10:19;;;;;;;;;;;;;;;-144.99;100.00;52570.38;5030907;28;20216;-63
2021/11/20 00:12:46;;;;;;;;;;;;;;;-144.99;100.00;52558.16;5031343;28;20042;-64
2021/11/20 00:15:14;;;;;;;;;;;;;;;-144.99;100.00;52541.84;5030044;28;20035;-62
2021/11/20 00:17:42;;;;;;;;;;;;;;;-144.99;100.00;52578.53;5030410;28;19985;-62
2021/11/20 00:20:10;;;;;;;;;;;;;;;-144.99;100.00;52566.31;5029460;28;20010;-62
2021/11/20 00:22:40;;;;;;;;;;;;;;;-144.99;100.00;52594.84;5030819;28;20032;-62
2021/11/20 00:25:08;;;;;;;;;;;;;;;-144.99;100.00;52570.38;5035487;28;20036;-62
2021/11/20 00:27:37;;;;;;;;;;;;;;;-144.99;100.00;52586.69;5043702;28;20020;-62
2021/11/20 00:30:13;;;;;;;;;;;;;;;-144.99;100.00;52570.38;5030053;28;20411;-62
2021/11/20 00:32:40;;;;;;;;;;;;;;;-144.99;100.00;52582.63;5030043;28;19997;-62
2021/11/20 00:35:08;;;;;;;;;;;;;;;-144.99;100.00;52594.84;5033738;28;20009;-62
2021/11/20 00:37:34;;;;;;;;;;;;;;;-144.99;100.00;52578.53;5030354;28;20051;-62
2021/11/20 00:40:03;;;;;;;;;;;;;;;-144.99;100.00;52554.09;5029858;28;20035;-62
2021/11/20 00:42:31;;;;;;;;;;;;;;;-144.99;100.00;52570.38;5029950;28;20027;-62
2021/11/20 00:44:57;;;;;;;;;;;;;;;-144.99;100.00;52558.16;5028552;28;20417;-62
2021/11/20 00:47:25;;;;;;;;;;;;;;;-144.99;100.00;52558.16;5029819;28;20020;-62
2021/11/20 00:49:52;;;;;;;;;;;;;;;-144.99;100.00;52580.59;5028359;28;20357;-62
2021/11/20 00:52:19;;;;;;;;;;;;;;;-144.99;100.00;52578.53;5029442;28;20314;-62
2021/11/20 00:54:45;;;;;;;;;;;;;;;-144.99;100.00;52550.00;5028856;28;20037;-63
2021/11/20 00:57:13;;;;;;;;;;;;;;;-144.99;100.00;52582.63;5037017;28;20119;-62
2021/11/20 00:59:40;;;;;;;;;;;;;;;-144.99;100.00;52554.09;5042774;28;20025;-62
2021/11/20 01:02:07;;;;;;;;;;;;;;;-144.99;100.00;52554.09;5029909;28;20048;-63
2021/11/20 01:04:34;;;;;;;;;;;;;;;-144.99;100.00;52558.16;5028371;28;20084;-61
2021/11/20 01:07:01;;;;;;;;;;;;;;;-144.99;100.00;52582.63;5029721;28;19982;-62
2021/11/20 01:09:30;;;;;;;;;;;;;;;-144.99;100.00;52574.47;5028890;28;20470;-63
2021/11/20 01:11:57;;;;;;;;;;;;;;;-144.99;100.00;52560.19;5029181;28;20017;-62
2021/11/20 01:14:26;;;;;;;;;;;;;;;-144.99;100.00;52550.00;5037240;28;19997;-63
2021/11/20 01:16:54;;;;;;;;;;;;;;;-144.99;100.00;52550.00;5040687;28;20021;-62
2021/11/20 01:19:21;;;;;;;;;;;;;;;-144.99;100.00;52523.50;5032209;28;20224;-63
2021/11/20 01:21:49;;;;;;;;;;;;;;;-144.99;100.00;52558.16;5030239;28;20021;-63
2021/11/20 01:24:16;;;;;;;;;;;;;;;-144.99;100.00;52554.09;5028921;28;20041;-63
2021/11/20 01:26:43;;;;;;;;;;;;;;;-144.99;100.00;52586.69;5029949;28;20391;-64
2021/11/20 01:29:11;;;;;;;;;;;;;;;-144.99;100.00;52541.84;5029608;28;19981;-59
2021/11/20 01:31:40;;;;;;;;;;;;;;;-144.99;100.00;52566.31;5029297;28;20086;-59
2021/11/20 01:34:08;;;;;;;;;;;;;;;-144.99;100.00;52545.94;5028544;28;20424;-59
2021/11/20 01:36:35;;;;;;;;;;;;;;;-144.99;100.00;52570.38;5032175;28;19982;-62
2021/11/20 01:39:05;;;;;;;;;;;;;;;-144.99;100.00;52537.78;5028857;28;20020;-60
2021/11/20 01:41:33;;;;;;;;;;;;;;;-144.99;100.00;52564.28;5028610;28;20499;-60
2021/11/20 01:44:07;;;;;;;;;;;;;;;-144.99;100.00;52556.13;5028039;28;20111;-62
2021/11/20 01:46:33;;;;;;;;;;;;;;;-144.99;100.00;52568.34;5034586;28;20008;-61
2021/11/20 01:49:06;;;;;;;;;;;;;;;-144.99;100.00;52550.00;5045296;28;20268;-61
2021/11/20 01:51:34;;;;;;;;;;;;;;;-144.99;100.00;52574.47;5034932;28;19985;-61
2021/11/20 01:54:05;;;;;;;;;;;;;;;-144.99;100.00;52554.09;5029614;28;19997;-62
2021/11/20 01:56:37;;;;;;;;;;;;;;;-144.99;100.00;52586.69;5032008;28;19982;-61
2021/11/20 01:59:06;;;;;;;;;;;;;;;-144.99;100.00;52603.00;5039085;28;20493;-61
2021/11/20 02:01:35;;;;;;;;;;;;;;;-144.99;100.00;52564.28;5036722;28;20026;-61
2021/11/20 02:04:05;;;;;;;;;;;;;;;-144.99;100.00;52570.38;5032640;28;20462;-60
2021/11/20 02:06:34;;;;;;;;;;;;;;;-144.99;100.00;52586.69;5034812;28;20028;-61
2021/11/20 02:09:04;;;;;;;;;;;;;;;-144.99;100.00;52582.63;5039729;28;20464;-61
2021/11/20 02:11:32;;;;;;;;;;;;;;;-144.99;100.00;52582.63;5038635;28;20044;-61
2021/11/20 02:13:59;;;;;;;;;;;;;;;-144.99;100.00;52562.25;5040272;28;20048;-60
2021/11/20 02:19:02;;;;;;;;;;;;;;;-144.99;100.00;52537.78;5595650;22;20182;-82
2021/11/20 02:21:34;;;;;;;;;;;;;;;-144.99;100.00;52590.78;5064129;28;19981;-80
2021/11/20 02:24:00;;;;;;;;;;;;;;;-144.99;100.00;52594.84;5063599;28;19997;-81
2021/11/20 02:26:27;;;;;;;;;;;;;;;-144.99;100.00;52558.16;5061484;28;19984;-82
2021/11/20 02:28:55;;;;;;;;;;;;;;;-144.99;100.00;52594.84;5055745;28;20016;-82
2021/11/20 02:31:23;;;;;;;;;;;;;;;-144.99;100.00;52570.38;5064250;28;20038;-81
2021/11/20 02:33:51;;;;;;;;;;;;;;;-144.99;100.00;52590.78;5058386;28;19981;-79
2021/11/20 02:36:18;;;;;;;;;;;;;;;-144.99;100.00;52590.78;5049654;28;20029;-81
2021/11/20 02:38:47;;;;;;;;;;;;;;;-144.99;100.00;52541.84;5055045;28;20020;-80
2021/11/20 02:41:15;;;;;;;;;;;;;;;-144.99;100.00;52570.38;5059796;28;20042;-80
2021/11/20 02:43:43;;;;;;;;;;;;;;;-144.99;100.00;52574.47;5060452;28;19985;-77
2021/11/20 02:46:11;;;;;;;;;;;;;;;-144.99;100.00;52568.34;5059816;28;20035;-81
2021/11/20 02:48:39;;;;;;;;;;;;;;;-144.99;100.00;52578.53;5057502;28;20004;-80
2021/11/20 02:51:08;;;;;;;;;;;;;;;-144.99;100.00;52582.63;5057763;28;19981;-81
2021/11/20 02:53:36;;;;;;;;;;;;;;;-144.99;100.00;52582.63;5058441;28;19985;-81
2021/11/20 02:56:04;;;;;;;;;;;;;;;-144.99;100.00;52576.50;5058397;28;20369;-79
2021/11/20 02:58:30;;;;;;;;;;;;;;;-144.99;100.00;52558.16;5060780;28;20051;-81
2021/11/20 03:00:59;;;;;;;;;;;;;;;-144.99;100.00;52572.44;5050989;28;19984;-79
2021/11/20 03:03:25;;;;;;;;;;;;;;;-144.99;100.00;52556.13;5057363;28;19985;-79
2021/11/20 03:05:54;;;;;;;;;;;;;;;-144.99;100.00;52572.44;5056733;28;19993;-78
2021/11/20 03:08:20;;;;;;;;;;;;;;;-144.99;100.00;52570.38;5055268;28;20043;-78
2021/11/20 03:10:47;;;;;;;;;;;;;;;-144.99;100.00;52578.53;5055216;28;20017;-74
2021/11/20 03:13:13;;;;;;;;;;;;;;;-144.99;100.00;52558.16;5053856;28;20065;-76
2021/11/20 03:15:40;;;;;;;;;;;;;;;-144.99;100.00;52525.56;5034959;28;20443;-78
2021/11/20 03:18:07;;;;;;;;;;;;;;;-144.99;100.00;52594.84;5048552;28;20221;-77
2021/11/20 03:20:34;;;;;;;;;;;;;;;-144.99;100.00;52572.44;5053306;28;20039;-78
2021/11/20 03:23:04;;;;;;;;;;;;;;;-144.99;100.00;52566.31;5053270;28;20021;-77
2021/11/20 03:25:31;;;;;;;;;;;;;;;-144.99;100.00;52570.38;5053127;28;19997;-78
2021/11/20 03:27:58;;;;;;;;;;;;;;;-144.99;100.00;52545.94;5053088;28;19981;-77
2021/11/20 03:30:24;;;;;;;;;;;;;;;-144.99;100.00;52562.25;5053343;28;20035;-78
2021/11/20 03:32:51;;;;;;;;;;;;;;;-144.99;100.00;52545.94;5053747;28;20020;-77
2021/11/20 03:35:18;;;;;;;;;;;;;;;-144.99;100.00;52545.94;5051434;28;19974;-79
2021/11/20 03:37:45;;;;;;;;;;;;;;;-144.99;100.00;52594.84;5054451;28;20000;-77
2021/11/20 03:40:14;;;;;;;;;;;;;;;-144.99;100.00;52562.25;5057194;28;20016;-80
2021/11/20 03:42:41;;;;;;;;;;;;;;;-144.99;100.00;52574.47;5057318;28;20027;-80
2021/11/20 03:45:09;;;;;;;;;;;;;;;-144.99;100.00;52539.81;5054921;28;19993;-81
2021/11/20 03:47:36;;;;;;;;;;;;;;;-144.99;100.00;52582.63;5050843;28;20023;-79
2021/11/20 03:50:03;;;;;;;;;;;;;;;-144.99;100.00;52545.94;5041684;28;20270;-78
2021/11/20 03:52:29;;;;;;;;;;;;;;;-144.99;100.00;52582.63;5053689;28;19985;-79
2021/11/20 03:54:56;;;;;;;;;;;;;;;-144.99;100.00;52550.00;5054255;28;19995;-80
2021/11/20 03:57:24;;;;;;;;;;;;;;;-144.99;100.00;52543.91;5056028;28;20381;-80
2021/11/20 03:59:51;;;;;;;;;;;;;;;-144.99;100.00;52566.31;5059338;28;20035;-79
2021/11/20 04:02:17;;;;;;;;;;;;;;;-144.99;100.00;52547.97;5065801;28;20004;-80
2021/11/20 04:04:44;;;;;;;;;;;;;;;-144.99;100.00;52572.44;5064343;28;20031;-80
2021/11/20 04:07:11;;;;;;;;;;;;;;;-144.99;100.00;52582.63;5064901;28;20126;-82
2021/11/20 04:09:37;;;;;;;;;;;;;;;-144.99;100.00;52570.38;5063510;28;19993;-81
2021/11/20 04:12:04;;;;;;;;;;;;;;;-144.99;100.00;52576.50;5063952;28;20376;-80
2021/11/20 04:14:32;;;;;;;;;;;;;;;-144.99;100.00;52582.63;5065971;28;20031;-80
2021/11/20 04:16:59;;;;;;;;;;;;;;;-144.99;100.00;52570.38;5063876;28;20038;-80
2021/11/20 04:19:26;;;;;;;;;;;;;;;-144.99;100.00;52582.63;5058980;28;20001;-80
2021/11/20 04:21:54;;;;;;;;;;;;;;;-144.99;100.00;52566.31;5053515;28;20000;-79
2021/11/20 04:24:21;;;;;;;;;;;;;;;-144.99;100.00;52539.81;5054932;28;19985;-80
2021/11/20 04:26:48;;;;;;;;;;;;;;;-144.99;100.00;52594.84;5043138;28;19974;-80
2021/11/20 04:29:14;;;;;;;;;;;;;;;-144.99;100.00;52594.84;5049178;28;20034;-80
2021/11/20 04:31:43;;;;;;;;;;;;;;;-144.99;100.00;52560.19;5054663;28;20488;-80
2021/11/20 04:34:09;;;;;;;;;;;;;;;-144.99;100.00;52574.47;5053820;28;19981;-79
2021/11/20 04:36:36;;;;;;;;;;;;;;;-144.99;100.00;52537.78;5054655;28;20038;-80
2021/11/20 04:39:04;;;;;;;;;;;;;;;-144.99;100.00;52582.63;5053773;28;20001;-81
2021/11/20 04:41:30;;;;;;;;;;;;;;;-144.99;100.00;52580.59;5055042;28;20255;-80
2021/11/20 04:43:57;;;;;;;;;;;;;;;-144.99;100.00;52566.31;5054688;28;19981;-82
2021/11/20 04:46:24;;;;;;;;;;;;;;;-144.99;100.00;52529.63;5055443;28;19994;-80
2021/11/20 04:48:53;;;;;;;;;;;;;;;-144.99;100.00;52574.47;5044197;28;20052;-81
2021/11/20 04:51:20;;;;;;;;;;;;;;;-144.99;100.00;52570.38;5064021;28;19981;-83
2021/11/20 04:53:47;;;;;;;;;;;;;;;-144.99;100.00;52592.81;5069681;28;20054;-77
2021/11/20 04:56:15;;;;;;;;;;;;;;;-144.99;100.00;52554.09;5061728;28;19981;-84
2021/11/20 04:58:42;;;;;;;;;;;;;;;-144.99;100.00;52603.00;5054216;28;19989;-80
2021/11/20 05:01:09;;;;;;;;;;;;;;;-144.99;100.00;52537.78;5038223;28;19977;-82
2021/11/20 05:03:36;;;;;;;;;;;;;;;-144.99;100.00;52582.63;5055858;28;19957;-81
2021/11/20 05:06:04;;;;;;;;;;;;;;;-144.99;100.00;52543.91;5052677;28;20050;-77
2021/11/20 05:08:31;;;;;;;;;;;;;;;-144.99;100.00;52588.75;5052707;28;20011;-78
2021/11/20 05:10:58;;;;;;;;;;;;;;;-144.99;100.00;52560.19;5053292;28;20031;-81
2021/11/20 05:13:26;;;;;;;;;;;;;;;-144.99;100.00;52586.69;5051462;28;19981;-78
2021/11/20 05:15:54;;;;;;;;;;;;;;;-144.99;100.00;52541.84;5036727;28;20385;-77
2021/11/20 05:18:21;;;;;;;;;;;;;;;-144.99;100.00;52576.50;5043624;28;20219;-80
2021/11/20 05:20:48;;;;;;;;;;;;;;;-144.99;100.00;52543.91;5050094;28;20075;-77
2021/11/20 05:23:16;;;;;;;;;;;;;;;-144.99;100.00;52603.00;5041500;28;20026;-77
2021/11/20 05:25:43;;;;;;;;;;;;;;;-144.99;100.00;52590.78;5052577;28;20004;-79
2021/11/20 05:28:10;;;;;;;;;;;;;;;-144.99;100.00;52550.00;5055644;28;20092;-82
2021/11/20 05:30:38;;;;;;;;;;;;;;;-144.99;100.00;52578.53;5055827;28;20013;-81
2021/11/20 05:33:06;;;;;;;;;;;;;;;-144.99;100.00;52562.25;5060919;28;20281;-81
2021/11/20 05:35:33;;;;;;;;;;;;;;;-144.99;100.00;52613.19;5056779;28;20032;-81
2021/11/20 05:38:00;;;;;;;;;;;;;;;-144.99;100.00;52566.31;5053353;28;19996;-79
2021/11/20 05:40:29;;;;;;;;;;;;;;;-144.99;100.00;52590.78;5058467;28;20047;-78
2021/11/20 05:42:57;;;;;;;;;;;;;;;-144.99;100.00;52603.00;5061862;28;20092;-79
2021/11/20 05:45:24;;;;;;;;;;;;;;;-144.99;100.00;52570.38;5064157;28;20001;-79
2021/11/20 05:47:51;;;;;;;;;;;;;;;-144.99;100.00;52574.47;5057986;28;20001;-80
2021/11/20 05:50:19;;;;;;;;;;;;;;;-144.99;100.00;52568.34;5054744;28;20381;-80
2021/11/20 05:52:46;;;;;;;;;;;;;;;-144.99;100.00;52566.31;5050363;28;20011;-80
2021/11/20 05:55:13;;;;;;;;;;;;;;;-144.99;100.00;52554.09;5061586;28;19985;-79
2021/11/20 05:57:41;;;;;;;;;;;;;;;-144.99;100.00;52570.38;5056657;28;20016;-78
2021/11/20 06:00:10;;;;;;;;;;;;;;;-144.99;100.00;52556.13;5062511;28;19993;-77
2021/11/20 06:02:36;;;;;;;;;;;;;;;-144.99;100.00;52566.31;5062942;28;19981;-78
2021/11/20 06:05:03;;;;;;;;;;;;;;;-144.99;100.00;52590.78;5062528;28;19997;-78
2021/11/20 06:07:30;;;;;;;;;;;;;;;-144.99;100.00;52558.16;5058015;28;20339;-77
2021/11/20 06:09:56;;;;;;;;;;;;;;;-144.99;100.00;52594.84;5055596;28;19993;-78
2021/11/20 06:12:24;;;;;;;;;;;;;;;-144.99;100.00;52550.00;5056256;28;20502;-79
2021/11/20 06:14:51;;;;;;;;;;;;;;;-144.99;100.00;52603.00;5055897;28;20024;-78
2021/11/20 06:17:18;;;;;;;;;;;;;;;-144.99;100.00;52558.16;5065370;28;20041;-80
2021/11/20 06:19:45;;;;;;;;;;;;;;;-144.99;100.00;52550.00;5058882;28;20008;-79
2021/11/20 06:22:11;;;;;;;;;;;;;;;-144.99;100.00;52574.47;5057471;28;19981;-80
2021/11/20 06:24:38;;;;;;;;;;;;;;;-144.99;100.00;52576.50;5059448;28;20512;-79
2021/11/20 06:27:04;;;;;;;;;;;;;;;-144.99;100.00;52515.34;5059975;28;19996;-81
2021/11/20 06:29:31;;;;;;;;;;;;;;;-144.99;100.00;52554.09;5052092;28;19997;-81
2021/11/20 06:31:59;;;;;;;;;;;;;;;-144.99;100.00;52584.66;5061105;28;20509;-81
2021/11/20 06:34:25;;;;;;;;;;;;;;;-144.99;100.00;52582.63;5059295;28;20346;-81
2021/11/20 06:36:52;;;;;;;;;;;;;;;-144.99;100.00;52586.69;5060263;28;20038;-81
2021/11/20 06:39:19;;;;;;;;;;;;;;;-144.99;100.00;52580.59;5058438;28;19997;-81
2021/11/20 06:41:45;;;;;;;;;;;;;;;-144.99;100.00;52545.94;5058833;28;19985;-80
2021/11/20 06:44:12;;;;;;;;;;;;;;;-144.99;100.00;52576.50;5058084;28;19981;-81
2021/11/20 06:46:39;;;;;;;;;;;;;;;-144.99;100.00;52596.88;5060709;28;19993;-78
2021/11/20 06:49:07;;;;;;;;;;;;;;;-144.99;100.00;52576.50;5062738;28;20416;-80
2021/11/20 06:51:33;;;;;;;;;;;;;;;-144.99;100.00;52590.78;5061301;28;19985;-79
2021/11/20 06:54:00;;;;;;;;;;;;;;;-144.99;100.00;52586.69;5060390;28;19981;-79
2021/11/20 06:56:28;;;;;;;;;;;;;;;-144.99;100.00;52578.53;5059021;28;19981;-79
2021/11/20 06:59:08;;;;;;;;;;;;;;;-144.99;100.00;52550.00;5061237;28;20546;-80
2021/11/20 07:01:36;;;;;;;;;;;;;;;-144.99;100.00;52578.53;5058394;28;20021;-82
2021/11/20 07:04:04;;;;;;;;;;;;;;;-144.99;100.00;52537.78;5060476;28;20617;-81
2021/11/20 07:06:34;;;;;;;;;;;;;;;-144.99;100.00;52582.63;5059226;28;20056;-81
2021/11/20 07:09:01;;;;;;;;;;;;;;;-144.99;100.00;52556.13;5060485;28;20036;-82
2021/11/20 07:11:28;;;;;;;;;;;;;;;-144.99;100.00;52586.69;5062495;28;20437;-82
2021/11/20 07:13:55;;;;;;;;;;;;;;;-144.99;100.00;52537.78;5056255;28;19974;-81
2021/11/20 07:16:23;;;;;;;;;;;;;;;-144.99;100.00;52576.50;5049280;28;20036;-81
2021/11/20 07:18:49;;;;;;;;;;;;;;;-144.99;100.00;52554.09;5055190;28;19997;-79
2021/11/20 07:21:17;;;;;;;;;;;;;;;-144.99;100.00;52552.03;5058279;28;19978;-80
2021/11/20 07:23:45;;;;;;;;;;;;;;;-144.99;100.00;52517.41;5058304;28;19981;-82
2021/11/20 07:26:14;;;;;;;;;;;;;;;-144.99;100.00;52574.47;5058935;28;20147;-80
2021/11/20 07:28:40;;;;;;;;;;;;;;;-144.99;100.00;52603.00;5056909;28;20486;-80
2021/11/20 07:31:07;;;;;;;;;;;;;;;-144.99;100.00;52570.38;5055968;28;20016;-77
2021/11/20 07:33:33;;;;;;;;;;;;;;;-144.99;100.00;52566.31;5054846;28;20066;-78
2021/11/20 07:36:01;;;;;;;;;;;;;;;-144.99;100.00;52584.66;5054325;28;20523;-77
2021/11/20 07:38:29;;;;;;;;;;;;;;;-144.99;100.00;52566.31;5054221;28;19997;-79
2021/11/20 07:40:57;;;;;;;;;;;;;;;-144.99;100.00;52564.28;5061246;28;19969;-80
2021/11/20 07:43:23;;;;;;;;;;;;;;;-144.99;100.00;52574.47;5065784;28;20143;-79
2021/11/20 07:45:50;;;;;;;;;;;;;;;-144.99;100.00;52584.66;5057332;28;19997;-79
2021/11/20 07:48:18;;;;;;;;;;;;;;;-144.99;100.00;52582.63;5050138;28;20444;-79
2021/11/20 07:50:45;;;;;;;;;;;;;;;-144.99;100.00;52564.28;5041989;28;20467;-75
2021/11/20 07:53:12;;;;;;;;;;;;;;;-144.99;100.00;52586.69;5052373;28;19981;-76
2021/11/20 07:55:38;;;;;;;;;;;;;;;-144.99;100.00;52560.19;5052307;28;20335;-75
2021/11/20 07:58:06;;;;;;;;;;;;;;;-144.99;100.00;52594.84;5052198;28;20516;-75
2021/11/20 08:00:34;;;;;;;;;;;;;;;-144.99;100.00;52570.38;5049664;28;19985;-76
2021/11/20 08:03:00;;;;;;;;;;;;;;;-144.99;100.00;52590.78;5052775;28;20013;-75
2021/11/20 08:05:28;;;;;;;;;;;;;;;-144.99;100.00;52562.25;5052231;28;19981;-76
2021/11/20 08:07:55;;;;;;;;;;;;;;;-144.99;100.00;52598.94;5052185;28;19985;-75
2021/11/20 08:10:23;;;;;;;;;;;;;;;-144.99;100.00;52566.31;5052255;28;19981;-77
2021/11/20 08:12:49;;;;;;;;;;;;;;;-144.99;100.00;52533.69;5051258;28;20475;-75
2021/11/20 08:15:18;;;;;;;;;;;;;;;-144.99;100.00;52603.00;5053800;28;20043;-78
2021/11/20 08:17:45;;;;;;;;;;;;;;;-144.99;100.00;52566.31;5051041;28;19981;-77
2021/11/20 08:20:13;;;;;;;;;;;;;;;-144.99;100.00;52598.94;5053339;28;20005;-78
2021/11/20 08:22:40;;;;;;;;;;;;;;;-144.99;100.00;52590.78;5049985;28;20038;-74
2021/11/20 08:25:09;;;;;;;;;;;;;;;-144.99;100.00;52570.38;5051546;28;20366;-74
2021/11/20 08:27:35;;;;;;;;;;;;;;;-144.99;100.00;52560.19;5039327;28;20124;-73
2021/11/20 08:30:04;;;;;;;;;;;;;;;-144.99;100.00;52578.53;5046888;28;20115;-74
2021/11/20 08:32:32;;;;;;;;;;;;;;;-144.99;100.00;52570.38;5051129;28;20417;-76
2021/11/20 08:34:59;;;;;;;;;;;;;;;-144.99;100.00;52596.88;5046244;28;19981;-78
2021/11/20 08:37:25;;;;;;;;;;;;;;;-144.99;100.00;52562.25;5053164;28;19981;-79
2021/11/20 08:39:53;;;;;;;;;;;;;;;-144.99;100.00;52574.47;5053295;28;20470;-78
2021/11/20 08:42:20;;;;;;;;;;;;;;;-144.99;100.00;52578.53;5048143;28;19981;-79
2021/11/20 08:44:49;;;;;;;;;;;;;;;-144.99;100.00;52605.03;5054273;28;20043;-77
2021/11/20 08:47:16;;;;;;;;;;;;;;;-144.99;100.00;52537.78;5052315;28;20616;-78
2021/11/20 08:49:44;;;;;;;;;;;;;;;-144.99;100.00;52554.09;5051062;28;20144;-78
2021/11/20 08:52:12;;;;;;;;;;;;;;;-144.99;100.00;52586.69;5051739;28;19959;-78
2021/11/20 08:54:39;;;;;;;;;;;;;;;-144.99;100.00;52603.00;5060726;28;20073;-80
2021/11/20 08:57:05;;;;;;;;;;;;;;;-144.99;100.00;52566.31;5072209;28;19981;-80
2021/11/20 08:59:33;;;;;;;;;;;;;;;-144.99;100.00;52545.94;5070850;28;19981;-82
2021/11/20 09:02:03;;;;;;;;;;;;;;;-144.99;100.00;52570.38;5085914;28;19965;-82
2021/11/20 09:04:35;;;;;;;;;;;;;;;-144.99;100.00;52562.25;5066093;28;20044;-78
2021/11/20 09:07:06;;;;;;;;;;;;;;;-144.99;100.00;52568.34;5054709;28;20001;-76
2021/11/20 09:09:34;;;;;;;;;;;;;;;-144.99;100.00;52568.34;5045763;28;20469;-77
2021/11/20 09:12:03;;;;;;;;;;;;;;;-144.99;100.00;52562.25;5050867;28;20361;-77
2021/11/20 09:14:32;;;;;;;;;;;;;;;-144.99;100.00;52554.09;5052884;28;20026;-77
2021/11/20 09:16:59;;;;;;;;;;;;;;;-144.99;100.00;52586.69;5049998;28;19973;-76
2021/11/20 09:19:26;;;;;;;;;;;;;;;-144.99;100.00;52566.31;5047045;28;20001;-78
2021/11/20 09:21:53;;;;;;;;;;;;;;;-144.99;100.00;52596.88;5045545;28;19981;-79
2021/11/20 09:24:21;;;;;;;;;;;;;;;-144.99;100.00;52615.25;5048330;28;19977;-78
2021/11/20 09:26:47;;;;;;;;;;;;;;;-144.99;99.64;52574.47;5040926;28;19997;-78
2021/11/20 09:29:15;;;;;;;;;;;;;;;-144.99;99.78;52554.09;5039549;28;20127;-78
2021/11/20 09:31:43;;;;;;;;;;;;;;;-144.99;100.00;52566.31;5039888;28;19985;-77
2021/11/20 09:34:10;;;;;;;;;;;;;;;-144.99;100.00;52611.16;5043941;28;19983;-78
2021/11/20 09:36:37;;;;;;;;;;;;;;;-144.99;100.00;52578.53;5044509;28;20447;-78
2021/11/20 09:39:05;;;;;;;;;;;;;;;-144.99;100.00;52586.69;5044607;28;19997;-78
2021/11/20 09:41:39;;;;;;;;;;;;;;;-144.99;100.00;52562.25;5039478;28;20481;-78
2021/11/20 09:44:07;;;;;;;;;;;;;;;-144.99;100.00;52556.13;5040103;28;19984;-80
2021/11/20 09:46:44;;;;;;;;;;;;;;;-144.99;100.00;52570.38;5042244;28;20761;-78
2021/11/20 09:49:15;;;;;;;;;;;;;;;-144.99;100.00;52501.09;5044461;28;20005;-78
2021/11/20 09:51:44;;;;;;;;;;;;;;;-144.99;100.00;52584.66;5050361;28;19973;-78
2021/11/20 09:54:11;;;;;;;;;;;;;;;-144.99;99.90;52586.69;5046758;28;19950;-78
2021/11/20 09:56:41;;;;;;;;;;;;;;;-144.99;100.00;52566.31;5049220;28;19981;-77
2021/11/20 09:59:25;;;;;;;;;;;;;;;-144.99;100.00;52578.53;5048455;28;20001;-79
2021/11/20 10:01:54;;;;;;;;;;;;;;;-144.99;99.70;52607.09;5050484;28;19977;-78
2021/11/20 10:04:23;;;;;;;;;;;;;;;-144.99;100.00;52554.09;5044391;28;20004;-77
2021/11/20 10:06:52;;;;;;;;;;;;;;;-144.99;100.00;52562.25;5042143;28;19997;-78
2021/11/20 10:09:30;;;;;;;;;;;;;;;-144.99;100.00;52570.38;5041224;28;20043;-75
2021/11/20 10:12:03;;;;;;;;;;;;;;;-144.99;100.00;52558.16;5043582;28;20020;-77
2021/11/20 10:14:32;;;;;;;;;;;;;;;-144.99;100.00;52582.63;5040872;28;19977;-78
2021/11/20 10:17:11;;;;;;;;;;;;;;;-144.99;99.27;52588.75;5038571;28;20019;-77
2021/11/20 10:19:41;;;;;;;;;;;;;;;-144.99;100.00;52586.69;5045128;28;20110;-78
2021/11/20 10:22:11;;;;;;;;;;;;;;;-144.99;100.00;52566.31;5053867;28;19977;-76
2021/11/20 10:24:48;;;;;;;;;;;;;;;-144.99;99.96;52562.25;5048944;28;19973;-78
2021/11/20 10:27:30;;;;;;;;;;;;;;;-144.99;100.00;52590.78;5049493;28;19989;-77
2021/11/20 10:30:05;;;;;;;;;;;;;;;-144.99;100.00;52578.53;5044212;28;19994;-79
2021/11/20 10:32:34;;;;;;;;;;;;;;;-144.99;99.47;52594.84;5049524;28;20415;-77
2021/11/20 10:35:01;;;;;;;;;;;;;;;-144.99;100.00;52529.63;5046855;28;20485;-78
2021/11/20 10:37:35;;;;;;;;;;;;;;;-144.99;100.00;52558.16;5051094;28;20029;-78
2021/11/20 10:40:09;;;;;;;;;;;;;;;-144.99;99.95;52590.78;5041135;28;20004;-77
2021/11/20 10:42:39;;;;;;;;;;;;;;;-144.99;99.06;52525.56;5048850;28;19986;-78
2021/11/20 10:45:09;;;;;;;;;;;;;;;-144.99;99.62;52550.00;5055690;28;20019;-75
2021/11/20 10:47:39;;;;;;;;;;;;;;;-144.99;97.46;52588.75;5053114;28;20507;-78
2021/11/20 10:50:19;;;;;;;;;;;;;;;-144.99;98.01;52578.53;5060029;28;19993;-79
2021/11/20 10:53:04;;;;;;;;;;;;;;;-144.99;98.07;52586.69;5054516;28;19989;-78
2021/11/20 10:55:35;;;;;;;;;;;;;;;-144.99;97.28;52576.50;5051017;28;20388;-79
2021/11/20 10:58:14;;;;;;;;;;;;;;;-144.99;96.82;52562.25;5060358;28;19985;-79
2021/11/20 11:01:02;;;;;;;;;;;;;;;-144.99;97.24;52570.38;5056993;28;20038;-80
2021/11/20 11:03:33;;;;;;;;;;;;;;;-144.99;97.17;52590.78;5046498;28;20039;-77
2021/11/20 11:06:18;;;;;;;;;;;;;;;-144.99;96.92;52554.09;5058846;28;19977;-78
2021/11/20 11:08:48;;;;;;;;;;;;;;;-144.99;96.57;52570.38;5054213;28;20540;-76
2021/11/20 11:11:19;;;;;;;;;;;;;;;-144.99;96.69;52588.75;5054715;28;19973;-76
2021/11/20 11:14:00;;;;;;;;;;;;;;;-144.99;96.70;52635.63;5055088;28;20259;-76
2021/11/20 11:16:34;;;;;;;;;;;;;;;-144.99;96.29;52554.09;5048395;28;19985;-78
2021/11/20 11:19:03;;;;;;;;;;;;;;;-144.99;96.68;52598.94;5047982;28;19992;-78
2021/11/20 11:21:54;;;;;;;;;;;;;;;-144.99;96.17;52619.31;5054962;28;19974;-78
2021/11/20 11:24:32;;;;;;;;;;;;;;;-144.99;96.32;52570.38;5053024;28;20004;-78
2021/11/20 11:27:02;;;;;;;;;;;;;;;-144.99;96.33;52576.50;5049148;28;20515;-78
2021/11/20 11:29:58;;;;;;;;;;;;;;;-144.99;96.94;52598.94;5043364;28;20688;-77
2021/11/20 11:32:26;;;;;;;;;;;;;;;-144.99;96.10;52558.16;5027470;28;19981;-78
2021/11/20 11:34:54;;;;;;;;;;;;;;;-144.99;96.46;52550.00;5041013;28;19978;-79
2021/11/20 11:37:26;;;;;;;;;;;;;;;-144.99;96.43;52578.53;5055117;28;19977;-78
2021/11/20 11:40:02;;;;;;;;;;;;;;;-144.99;95.59;52570.38;5049695;28;19998;-77
2021/11/20 11:42:34;;;;;;;;;;;;;;;-144.99;96.33;52598.94;5050689;28;20520;-79
2021/11/20 11:45:04;;;;;;;;;;;;;;;-144.99;95.67;52566.31;5052337;28;19977;-77
2021/11/20 11:47:35;;;;;;;;;;;;;;;-144.99;95.51;52590.78;5049197;28;20004;-78
2021/11/20 11:50:17;;;;;;;;;;;;;;;-144.99;95.22;52541.84;5053224;28;19943;-78
2021/11/20 11:52:47;;;;;;;;;;;;;;;-144.99;95.06;52582.63;5049983;28;19985;-78
2021/11/20 11:55:17;;;;;;;;;;;;;;;-144.99;94.50;52572.44;5049016;28;19963;-77
2021/11/20 11:57:51;;;;;;;;;;;;;;;-144.99;94.53;52582.63;5056958;28;19961;-79
2021/11/20 12:00:26;;;;;;;;;;;;;;;-144.99;94.97;52578.53;5065148;28;19973;-78
2021/11/20 12:02:58;;;;;;;;;;;;;;;-144.99;95.37;52623.38;5042228;28;20497;-77
2021/11/20 12:05:32;;;;;;;;;;;;;;;-144.99;95.44;52619.31;5048206;28;19996;-77
2021/11/20 12:08:06;;;;;;;;;;;;;;;-144.99;95.28;52607.09;5053017;28;20019;-78
2021/11/20 12:10:38;;;;;;;;;;;;;;;-144.99;95.41;52590.78;5040582;28;19988;-77
2021/11/20 12:13:06;;;;;;;;;;;;;;;-144.99;94.46;52588.75;5045813;28;19973;-77
2021/11/20 12:15:41;;;;;;;;;;;;;;;-144.99;94.92;52607.09;5044290;28;20490;-78
2021/11/20 12:18:12;;;;;;;;;;;;;;;-144.99;95.44;52586.69;5044904;28;19973;-79
2021/11/20 12:20:42;;;;;;;;;;;;;;;-144.99;94.92;52582.63;5047471;28;19981;-77
2021/11/20 12:23:23;;;;;;;;;;;;;;;-144.99;94.57;52594.84;5046062;28;19999;-78
2021/11/20 12:25:51;;;;;;;;;;;;;;;-144.99;95.72;52576.50;5048593;28;19977;-79
2021/11/20 12:28:27;;;;;;;;;;;;;;;-144.99;94.78;52560.19;5047461;28;19997;-79